Time;durP1;ratioP1;P1;durP2;ratioP2;P2;SDS_P1;SDS_P2;PMS_P1;PMS_P2;Temp;Humidity;BMP_temperature;BMP_pressure;BME280_temperature;BME280_humidity;BME280_pressure;Samples;Min_cycle;Max_cycle;Signal;HPM_P1;HPM_P2
2022/05/23 00:01:37;;;;;;;3.33;1.95;;;;;;;3.77;51.52;98773.06;5031824;28;20064;-54
2022/05/23 00:04:02;;;;;;;4.38;1.88;;;;;;;3.73;51.32;98778.53;5031244;28;20115;-55
2022/05/23 00:06:28;;;;;;;2.80;1.92;;;;;;;3.71;51.43;98779.63;5030629;28;20464;-54
2022/05/23 00:08:54;;;;;;;3.75;2.03;;;;;;;3.67;51.64;98776.31;5031493;28;20389;-56
2022/05/23 00:11:20;;;;;;;3.65;2.08;;;;;;;3.66;51.69;98787.88;5031129;28;20030;-52
2022/05/23 00:13:47;;;;;;;9.90;2.72;;;;;;;3.63;52.25;98779.31;5030431;28;20033;-53
2022/05/23 00:16:18;;;;;;;5.85;2.40;;;;;;;3.66;51.81;98782.56;5030261;28;20041;-52
2022/05/23 00:18:44;;;;;;;6.38;2.47;;;;;;;3.63;52.04;98784.59;5031096;28;20041;-51
2022/05/23 00:21:10;;;;;;;5.65;2.30;;;;;;;3.58;52.04;98780.44;5031312;28;20033;-54
2022/05/23 00:23:35;;;;;;;5.32;2.42;;;;;;;3.57;52.40;98786.69;5030667;28;20461;-54
2022/05/23 00:26:01;;;;;;;5.30;2.80;;;;;;;3.56;52.49;98784.16;5031229;28;20059;-49
2022/05/23 00:28:26;;;;;;;6.10;3.33;;;;;;;3.55;52.51;98788.59;5030710;28;20061;-54
2022/05/23 00:30:51;;;;;;;7.82;3.28;;;;;;;3.55;52.61;98782.47;5029896;28;20059;-55
2022/05/23 00:36:01;;;;;;;6.10;3.25;;;;;;;3.53;52.70;98782.56;5031142;28;20076;-56
2022/05/23 00:38:26;;;;;;;7.97;3.72;;;;;;;3.52;52.90;98791.47;5030829;28;20439;-54
2022/05/23 00:44:04;;;;;;;8.45;3.42;;;;;;;3.56;52.55;98789.47;5011223;28;20552;-51
2022/05/23 00:46:30;;;;;;;8.27;3.70;;;;;;;3.48;52.60;98792.63;5011086;28;20025;-54
2022/05/23 00:49:02;;;;;;;7.30;3.65;;;;;;;3.50;52.97;98795.19;5011035;28;20030;-54
2022/05/23 00:51:29;;;;;;;10.13;3.40;;;;;;;3.50;52.99;98801.31;5010962;28;20044;-56
2022/05/23 00:53:57;;;;;;;4.78;3.25;;;;;;;3.50;53.14;98798.66;5029664;28;20085;-53
2022/05/23 00:56:28;;;;;;;7.10;3.72;;;;;;;3.53;52.97;98805.56;5030549;28;20048;-51
2022/05/23 00:58:58;;;;;;;11.48;3.60;;;;;;;3.53;52.80;98798.44;5030829;28;20396;-55
2022/05/23 01:01:27;;;;;;;8.38;3.22;;;;;;;3.54;52.71;98808.06;5030840;28;20033;-55
2022/05/23 01:03:53;;;;;;;5.72;3.17;;;;;;;3.53;52.96;98803.75;5030609;28;20072;-57
2022/05/23 01:06:18;;;;;;;6.60;3.85;;;;;;;3.53;53.32;98805.56;5030227;28;20394;-56
2022/05/23 01:08:46;;;;;;;10.23;3.90;;;;;;;3.55;53.15;98803.66;5030461;28;20035;-54
2022/05/23 01:11:12;;;;;;;14.07;4.18;;;;;;;3.51;52.73;98802.16;5030862;28;20362;-53
2022/05/23 01:13:38;;;;;;;8.02;3.63;;;;;;;3.51;53.12;98807.47;5030405;28;20033;-56
2022/05/23 01:16:04;;;;;;;7.95;3.72;;;;;;;3.51;53.31;98812.75;5030454;28;20846;-54
2022/05/23 01:18:29;;;;;;;6.93;3.75;;;;;;;3.53;53.50;98810.84;5030317;28;20026;-53
2022/05/23 01:20:58;;;;;;;5.78;3.38;;;;;;;3.51;53.07;98813.59;5030464;28;20113;-57
2022/05/23 01:23:29;;;;;;;4.95;3.03;;;;;;;3.55;52.90;98817.72;5030138;28;20033;-53
2022/05/23 01:25:54;;;;;;;8.25;3.20;;;;;;;3.53;53.00;98816.97;5030354;28;20029;-52
2022/05/23 01:28:20;;;;;;;5.35;3.00;;;;;;;3.52;52.64;98809.97;5029971;28;20389;-57
2022/05/23 01:30:46;;;;;;;5.15;2.75;;;;;;;3.50;52.70;98803.94;5030386;28;20084;-57
2022/05/23 01:33:13;;;;;;;7.15;3.22;;;;;;;3.51;53.04;98802.16;5030491;28;20084;-54
2022/05/23 01:35:39;;;;;;;5.63;2.80;;;;;;;3.50;52.99;98803.94;5013154;28;20033;-56
2022/05/23 01:38:05;;;;;;;8.27;3.20;;;;;;;3.55;53.07;98815.06;5034264;28;20072;-54
2022/05/23 01:40:31;;;;;;;7.25;3.08;;;;;;;3.54;53.11;98808.06;5034102;28;20028;-50
2022/05/23 01:42:57;;;;;;;5.78;3.20;;;;;;;3.57;52.67;98802.56;5033870;28;20033;-52
2022/05/23 01:45:30;;;;;;;7.05;3.25;;;;;;;3.64;52.99;98810.94;5033924;28;20045;-50
2022/05/23 01:47:57;;;;;;;6.75;3.00;;;;;;;3.65;52.87;98809.16;5033674;28;20029;-53
2022/05/23 01:50:23;;;;;;;8.82;3.10;;;;;;;3.65;52.60;98809.16;5033915;28;20032;-57
2022/05/23 01:52:50;;;;;;;7.35;3.30;;;;;;;3.64;52.79;98802.19;5033081;28;20025;-54
2022/05/23 01:55:16;;;;;;;5.82;2.70;;;;;;;3.71;52.73;98814.03;5033766;28;20038;-53
2022/05/23 01:57:41;;;;;;;4.60;2.92;;;;;;;3.74;52.68;98805.88;5033722;28;20449;-52
2022/05/23 02:02:53;;;;;;;8.32;3.22;;;;;;;3.78;52.07;98796.75;5033466;28;20036;-53
2022/05/23 02:05:19;;;;;;;3.58;2.55;;;;;;;3.85;52.15;98807.78;5033614;28;20026;-53
2022/05/23 02:07:44;;;;;;;10.65;2.80;;;;;;;3.93;51.96;98796.66;5033508;28;20041;-54
2022/05/23 02:10:11;;;;;;;8.30;2.63;;;;;;;4.05;52.07;98805.56;5033106;28;20078;-54
2022/05/23 02:12:38;;;;;;;4.13;2.72;;;;;;;4.15;51.13;98791.56;5033850;28;20056;-54
2022/05/23 02:15:05;;;;;;;5.00;2.58;;;;;;;4.38;50.92;98797.03;5034305;28;20037;-55
2022/05/23 02:17:31;;;;;;;6.28;2.55;;;;;;;4.61;50.02;98805.13;5034742;28;20026;-53
2022/05/23 02:19:56;;;;;;;3.53;2.40;;;;;;;4.73;49.35;98785.66;5033229;28;20044;-50
2022/05/23 02:22:21;;;;;;;8.45;2.40;;;;;;;5.09;48.92;98806.91;5032940;28;20044;-51
2022/05/23 02:24:47;;;;;;;5.75;2.60;;;;;;;5.36;47.92;98803.16;5032650;28;20069;-54
2022/05/23 02:27:12;;;;;;;3.70;2.65;;;;;;;5.67;47.88;98805.28;5032962;28;20115;-50
2022/05/23 02:29:38;;;;;;;3.33;2.38;;;;;;;6.00;46.62;98807.16;5033032;28;20195;-54
2022/05/23 02:32:04;;;;;;;4.13;2.08;;;;;;;6.37;46.14;98803.44;5033146;28;20077;-51
2022/05/23 02:34:30;;;;;;;5.85;3.15;;;;;;;6.57;44.65;98782.38;5032776;28;20173;-49
2022/05/23 02:36:55;;;;;;;5.68;2.08;;;;;;;6.95;44.66;98793.53;5032869;28;20037;-55
2022/05/23 02:39:21;;;;;;;4.22;2.50;;;;;;;7.03;43.96;98791.06;5032976;28;20034;-56
2022/05/23 02:41:46;;;;;;;4.82;2.55;;;;;;;7.13;43.64;98796.47;5033083;28;20037;-52
2022/05/23 02:44:12;;;;;;;5.63;2.58;;;;;;;7.07;43.74;98786.34;5032756;28;20033;-53
2022/05/23 02:46:38;;;;;;;11.90;2.45;;;;;;;7.09;43.53;98795.88;5032685;28;20041;-52
2022/05/23 02:49:05;;;;;;;6.80;2.80;;;;;;;6.99;43.02;98801.13;5032327;28;20065;-52
2022/05/23 02:51:32;;;;;;;6.55;2.50;;;;;;;6.92;43.31;98799.94;5032740;28;20034;-51
2022/05/23 02:53:58;;;;;;;4.30;2.50;;;;;;;6.83;43.03;98798.84;5032438;28;20054;-54
2022/05/23 02:56:24;;;;;;;9.48;2.88;;;;;;;6.78;43.96;98794.91;5032810;28;20090;-51
2022/05/23 02:58:49;;;;;;;5.82;2.90;;;;;;;6.80;43.37;98798.28;5032791;28;20025;-54
2022/05/23 03:01:15;;;;;;;5.57;2.60;;;;;;;6.82;43.73;98806.97;5032588;28;20025;-57
2022/05/23 03:03:41;;;;;;;9.05;2.75;;;;;;;6.84;43.72;98808.53;5032325;28;20041;-57
2022/05/23 03:06:08;;;;;;;4.45;2.55;;;;;;;6.79;43.26;98780.63;5032394;28;20396;-56
2022/05/23 03:08:34;;;;;;;4.50;3.28;;;;;;;6.94;43.41;98803.31;5032476;28;20033;-55
2022/05/23 03:11:03;;;;;;;5.70;2.70;;;;;;;7.06;43.32;98819.25;5032217;28;20068;-54
2022/05/23 03:13:29;;;;;;;5.40;2.90;;;;;;;7.15;43.02;98813.16;5031879;28;20056;-55
2022/05/23 03:15:55;;;;;;;8.60;3.22;;;;;;;7.36;42.25;98809.69;5030799;28;20104;-51
2022/05/23 03:18:23;;;;;;;6.05;2.67;;;;;;;7.73;41.73;98815.41;5031951;28;20104;-56
2022/05/23 03:21:00;;;;;;;5.15;2.90;;;;;;;8.42;40.34;98820.25;5032388;28;20362;-50
2022/05/23 03:28:55;;;;;;;4.27;3.00;;;;;;;11.41;34.23;98812.09;5031818;28;20515;-53
2022/05/23 03:31:21;;;;;;;5.25;2.97;;;;;;;12.25;32.60;98806.31;5032117;28;20042;-56
2022/05/23 03:33:46;;;;;;;4.13;2.92;;;;;;;13.04;31.21;98803.41;5031588;28;20030;-55
2022/05/23 03:36:12;;;;;;;4.45;2.78;;;;;;;13.89;29.54;98807.66;5031589;28;20060;-56
2022/05/23 03:38:37;;;;;;;4.75;2.95;;;;;;;14.54;28.43;98804.13;5031594;28;20025;-54
2022/05/23 03:41:09;;;;;;;4.60;3.00;;;;;;;15.33;27.32;98808.59;5031664;28;20033;-53
2022/05/23 03:43:35;;;;;;;6.38;2.80;;;;;;;15.84;26.32;98797.19;5029530;28;20053;-53
2022/05/23 03:46:08;;;;;;;4.18;2.90;;;;;;;16.58;24.98;98789.31;5031678;28;20091;-53
2022/05/23 03:48:34;;;;;;;6.10;2.83;;;;;;;17.28;23.73;98797.84;5031000;28;20096;-52
2022/05/23 03:51:00;;;;;;;5.40;2.72;;;;;;;17.68;23.13;98783.00;5030998;28;20473;-51
2022/05/23 03:53:26;;;;;;;4.38;3.25;;;;;;;18.02;22.62;98795.78;5031732;28;20049;-56
2022/05/23 03:55:51;;;;;;;4.50;2.95;;;;;;;18.35;21.97;98768.03;5032256;28;20037;-55
2022/05/23 03:58:17;;;;;;;5.32;3.30;;;;;;;18.71;21.50;98790.50;5030595;28;20038;-55
2022/05/23 04:00:49;;;;;;;5.57;3.60;;;;;;;19.06;21.29;98787.75;5030940;28;20778;-52
2022/05/23 04:03:19;;;;;;;6.40;3.45;;;;;;;19.45;21.32;98787.16;5031292;28;20061;-53
2022/05/23 04:05:47;;;;;;;7.47;3.55;;;;;;;19.64;20.53;98796.38;5030951;28;20037;-52
2022/05/23 04:08:12;;;;;;;5.60;3.33;;;;;;;20.21;19.67;98788.63;5031177;28;20523;-51
2022/05/23 04:10:39;;;;;;;7.10;3.30;;;;;;;21.04;18.77;98794.41;5030963;28;20037;-58
2022/05/23 04:13:05;;;;;;;7.38;3.47;;;;;;;21.82;17.91;98788.84;5030624;28;20040;-58
2022/05/23 04:15:31;;;;;;;5.82;3.25;;;;;;;22.79;16.92;98787.41;5030115;28;20029;-52
2022/05/23 04:17:57;;;;;;;4.35;3.20;;;;;;;23.56;16.20;98790.56;5030944;28;20033;-53
2022/05/23 04:20:23;;;;;;;4.88;3.72;;;;;;;24.27;15.30;98778.84;5030974;28;20398;-53
2022/05/23 04:22:48;;;;;;;4.15;3.35;;;;;;;25.00;14.73;98775.69;5030556;28;20128;-56
2022/05/23 04:25:14;;;;;;;5.32;3.65;;;;;;;25.67;14.07;98769.75;5030558;28;20087;-55
2022/05/23 04:27:40;;;;;;;3.47;2.97;;;;;;;25.33;14.22;98763.16;5030143;28;20025;-55
2022/05/23 04:30:07;;;;;;;6.05;3.75;;;;;;;24.87;14.73;98765.06;5030232;28;20033;-52
2022/05/23 04:35:20;;;;;;;5.95;3.35;;;;;;;26.00;13.47;98785.38;5030350;28;20476;-53
2022/05/23 04:37:51;;;;;;;4.68;3.58;;;;;;;24.85;15.32;98780.91;5029592;28;20025;-56
2022/05/23 04:40:20;;;;;;;5.00;3.67;;;;;;;23.01;16.50;98786.94;5030416;28;20472;-52
2022/05/23 04:42:46;;;;;;;6.05;3.30;;;;;;;21.59;17.35;98782.09;5030549;28;20549;-55
2022/05/23 04:45:13;;;;;;;6.75;3.63;;;;;;;20.62;18.57;98780.34;5031247;28;20453;-53
2022/05/23 04:50:23;;;;;;;5.28;3.55;;;;;;;19.47;20.19;98785.09;5031134;28;20120;-55
2022/05/23 04:52:50;;;;;;;9.75;3.95;;;;;;;18.94;20.56;98765.78;5030696;28;20547;-54
2022/05/23 04:55:17;;;;;;;4.43;3.53;;;;;;;18.57;21.14;98780.69;5030872;28;20516;-56
2022/05/23 04:57:43;;;;;;;6.20;4.25;;;;;;;18.35;21.32;98776.19;5029982;28;20037;-55
2022/05/23 05:00:13;;;;;;;5.18;3.80;;;;;;;18.45;21.16;98780.41;5029556;28;20081;-55
2022/05/23 05:02:40;;;;;;;6.15;4.10;;;;;;;19.23;20.52;98773.78;5030869;28;20192;-51
2022/05/23 05:05:07;;;;;;;6.45;3.67;;;;;;;21.75;17.94;98777.19;5030469;28;20056;-51
2022/05/23 05:07:32;;;;;;;5.95;3.60;;;;;;;23.76;16.05;98775.75;5030146;28;20041;-54
2022/05/23 05:09:58;;;;;;;5.30;3.95;;;;;;;25.45;13.96;98754.03;5031346;28;20040;-55
2022/05/23 05:12:24;;;;;;;4.68;3.65;;;;;;;27.06;13.11;98768.06;5035099;28;20167;-54
2022/05/23 05:14:50;;;;;;;5.38;3.28;;;;;;;28.45;11.78;98773.03;5034269;28;20076;-51
2022/05/23 05:17:15;;;;;;;6.22;3.53;;;;;;;29.57;11.15;98754.31;5034269;28;20037;-53
2022/05/23 05:19:40;;;;;;;4.47;3.35;;;;;;;30.24;10.51;98758.09;5033934;28;20033;-50
2022/05/23 05:22:06;;;;;;;5.10;3.33;;;;;;;30.85;9.98;98758.97;5034119;28;20041;-51
2022/05/23 05:24:32;;;;;;;3.83;3.40;;;;;;;31.74;9.17;98751.72;5034115;28;20436;-53
2022/05/23 05:27:01;;;;;;;4.00;2.70;;;;;;;31.57;9.68;98746.63;5034038;28;20044;-56
2022/05/23 05:29:28;;;;;;;5.72;2.42;;;;;;;31.18;9.17;98751.84;5034627;28;20045;-55
2022/05/23 05:32:09;;;;;;;3.30;2.63;;;;;;;31.88;9.70;98746.38;5034371;28;20477;-53
2022/05/23 05:34:42;;;;;;;3.30;2.47;;;;;;;32.24;8.85;98747.91;5033780;28;20042;-59
2022/05/23 05:37:15;;;;;;;3.25;2.72;;;;;;;32.48;8.62;98742.41;5034120;28;20071;-53
2022/05/23 05:39:43;;;;;;;2.88;2.63;;;;;;;32.68;8.50;98744.06;5034245;28;20053;-53
2022/05/23 05:42:34;;;;;;;3.60;2.33;;;;;;;34.06;8.17;98738.63;5034263;28;20029;-51
2022/05/23 05:45:08;;;;;;;3.67;2.42;;;;;;;34.91;7.44;98745.75;5033587;28;20033;-51
2022/05/23 05:47:37;;;;;;;4.35;2.30;;;;;;;35.69;6.43;98735.59;5033918;28;20034;-50
2022/05/23 05:50:12;;;;;;;3.03;2.15;;;;;;;36.02;6.71;98743.66;5033612;28;20079;-48
2022/05/23 05:52:37;;;;;;;;;;;;;;;37.79;6.31;98737.16;5033669;28;20496;-53
2022/05/23 05:55:05;;;;;;;3.13;1.95;;;;;;;35.87;6.83;98731.75;5033204;28;19917;-57
2022/05/23 05:57:31;;;;;;;1.92;1.80;;;;;;;35.45;6.30;98745.06;5033734;28;20037;-54
2022/05/23 05:59:57;;;;;;;3.45;1.80;;;;;;;35.62;6.16;98725.75;5033086;28;20499;-52
2022/05/23 06:02:22;;;;;;;3.25;1.67;;;;;;;36.56;5.92;98724.06;5033750;28;20068;-53
2022/05/23 06:04:48;;;;;;;4.32;2.05;;;;;;;36.81;5.41;98718.84;5033087;28;20105;-50
2022/05/23 06:12:53;;;;;;;3.33;1.87;;;;;;;37.84;4.89;98713.81;5032985;28;20112;-52
2022/05/23 06:15:19;;;;;;;3.78;1.83;;;;;;;37.81;4.84;98715.28;5028737;28;20287;-57
2022/05/23 06:17:44;;;;;;;3.33;1.90;;;;;;;36.18;5.76;98708.69;5031737;28;20021;-57
2022/05/23 06:20:14;;;;;;;2.03;1.83;;;;;;;35.09;6.53;98729.28;5031987;28;20036;-55
2022/05/23 06:22:40;;;;;;;2.28;1.80;;;;;;;34.98;6.35;98711.97;5017677;28;20147;-52
2022/05/23 06:25:07;;;;;;;2.45;1.65;;;;;;;33.23;7.38;98701.16;5030364;28;20052;-55
2022/05/23 06:27:32;;;;;;;5.15;2.13;;;;;;;31.83;7.97;98702.97;5031025;28;20056;-55
2022/05/23 06:29:58;;;;;;;3.15;2.00;;;;;;;31.77;7.86;98690.28;5026446;28;20034;-56
2022/05/23 06:32:24;;;;;;;2.03;1.90;;;;;;;33.34;7.29;98686.00;5032543;28;20129;-57
2022/05/23 06:34:50;;;;;;;5.30;2.00;;;;;;;35.38;6.11;98687.09;5028564;28;20120;-57
2022/05/23 06:37:16;;;;;;;3.38;1.67;;;;;;;37.38;4.91;98686.31;5031251;28;20034;-56
2022/05/23 06:39:41;;;;;;;6.32;1.65;;;;;;;38.07;4.66;98683.66;5032752;28;20056;-56
2022/05/23 06:42:07;;;;;;;2.92;1.67;;;;;;;38.54;4.48;98690.31;5032272;28;20044;-55
2022/05/23 06:44:33;;;;;;;2.33;1.80;;;;;;;38.37;4.47;98688.44;5028545;28;20396;-57
2022/05/23 06:46:59;;;;;;;4.82;1.80;;;;;;;37.47;4.76;98689.09;5033069;28;20028;-54
2022/05/23 06:49:25;;;;;;;2.42;1.88;;;;;;;36.55;5.39;98682.56;5033099;28;20030;-55
2022/05/23 06:51:52;;;;;;;2.03;1.60;;;;;;;35.58;5.75;98685.78;5032602;28;20047;-54
2022/05/23 06:54:21;;;;;;;2.45;1.70;;;;;;;36.15;5.58;98681.44;5029529;28;20061;-52
2022/05/23 06:56:48;;;;;;;2.55;1.80;;;;;;;36.11;5.69;98680.44;5031091;28;20045;-59
2022/05/23 06:59:17;;;;;;;2.95;1.60;;;;;;;36.08;5.70;98681.09;5019513;28;20034;-53
2022/05/23 07:01:43;;;;;;;2.97;1.90;;;;;;;35.57;5.61;98683.28;5014429;28;20040;-57
2022/05/23 07:04:09;;;;;;;3.33;1.52;;;;;;;34.32;5.86;98663.91;5013887;28;20095;-53
2022/05/23 07:12:20;;;;;;;1.77;1.67;;;;;;;36.63;5.14;98662.22;5012712;28;20029;-54
2022/05/23 07:14:45;;;;;;;2.40;1.90;;;;;;;38.41;4.32;98659.47;5026246;28;20074;-57
2022/05/23 07:17:11;;;;;;;2.92;1.75;;;;;;;39.79;3.68;98658.91;5032196;28;20061;-58
2022/05/23 07:19:39;;;;;;;2.58;1.90;;;;;;;41.06;2.74;98659.19;5032536;28;20040;-56
2022/05/23 07:22:05;;;;;;;2.65;2.00;;;;;;;41.08;3.02;98668.88;5031760;28;20033;-60
2022/05/23 07:24:31;;;;;;;2.10;1.90;;;;;;;41.46;2.76;98647.06;5031293;28;20042;-53
2022/05/23 07:26:58;;;;;;;3.42;1.90;;;;;;;42.49;2.42;98665.28;5030602;28;20036;-57
2022/05/23 07:29:24;;;;;;;2.47;2.28;;;;;;;42.97;2.32;98671.53;5031259;28;20141;-57
2022/05/23 07:31:51;;;;;;;3.17;2.00;;;;;;;43.30;2.04;98656.09;5031662;28;20120;-58
2022/05/23 07:34:19;;;;;;;2.28;1.88;;;;;;;43.61;1.86;98667.53;5022081;28;20097;-56
2022/05/23 07:36:45;;;;;;;1.88;1.60;;;;;;;43.43;1.84;98658.75;5031643;28;20111;-55
2022/05/23 07:39:11;;;;;;;2.20;2.00;;;;;;;43.88;2.28;98659.94;5031210;28;20108;-52
2022/05/23 07:41:39;;;;;;;3.17;2.00;;;;;;;44.32;1.66;98657.81;5030210;28;20052;-56
2022/05/23 07:44:06;;;;;;;8.73;1.98;;;;;;;44.57;1.40;98643.25;5024083;28;20122;-57
2022/05/23 07:46:32;;;;;;;2.20;2.03;;;;;;;44.45;1.38;98605.59;5026163;28;20036;-55
2022/05/23 07:48:58;;;;;;;2.28;2.10;;;;;;;44.76;1.47;98638.66;5030453;28;20029;-55
2022/05/23 07:51:24;;;;;;;2.63;1.85;;;;;;;44.85;1.46;98644.81;5031831;28;20136;-54
2022/05/23 08:02:04;;;;;;;3.53;2.10;;;;;;;43.88;1.69;98616.84;5011997;28;20132;-58
2022/05/23 08:04:30;;;;;;;1.90;1.70;;;;;;;42.42;2.38;98601.19;5028301;28;20255;-53
2022/05/23 08:06:56;;;;;;;2.40;1.90;;;;;;;40.91;3.22;98616.69;5031435;28;20076;-57
2022/05/23 08:09:22;;;;;;;2.05;1.75;;;;;;;40.11;3.51;98600.28;5031379;28;20373;-55
2022/05/23 08:11:54;;;;;;;2.65;1.95;;;;;;;39.81;3.38;98613.72;5031278;28;20061;-59
2022/05/23 08:14:20;;;;;;;1.98;1.88;;;;;;;38.25;4.44;98600.56;5030392;28;20513;-56
2022/05/23 08:16:46;;;;;;;4.60;2.08;;;;;;;35.57;5.22;98583.94;5030886;28;20351;-58
2022/05/23 08:19:12;;;;;;;3.53;1.55;;;;;;;32.57;7.13;98613.19;5025902;28;20033;-52
2022/05/23 08:21:46;;;;;;;3.47;1.67;;;;;;;29.90;8.27;98619.66;5030697;28;20076;-51
2022/05/23 08:24:11;;;;;;;1.52;1.42;;;;;;;27.05;10.23;98607.94;5030291;28;20117;-57
2022/05/23 08:26:37;;;;;;;2.33;1.52;;;;;;;24.79;11.92;98615.72;5031024;28;20459;-54
2022/05/23 08:29:03;;;;;;;3.55;1.75;;;;;;;22.94;13.76;98601.44;5031614;28;20021;-53
2022/05/23 08:31:28;;;;;;;3.83;1.70;;;;;;;21.75;14.63;98598.22;5030897;28;20116;-53
2022/05/23 08:33:54;;;;;;;4.72;1.90;;;;;;;21.08;15.56;98604.31;5031194;28;20112;-50
2022/05/23 08:36:19;;;;;;;2.80;1.95;;;;;;;20.34;15.91;98597.47;5030879;28;20044;-54
2022/05/23 08:38:45;;;;;;;2.17;1.60;;;;;;;19.76;16.63;98596.47;5030630;28;20037;-52
2022/05/23 08:41:16;;;;;;;7.00;2.10;;;;;;;19.45;16.54;98592.59;5030933;28;20029;-50
2022/05/23 08:43:52;;;;;;;3.47;1.85;;;;;;;18.94;16.85;98600.34;5031481;28;20037;-53
2022/05/23 08:46:41;;;;;;;3.55;2.38;;;;;;;18.43;17.82;98595.47;5028822;28;20056;-54
2022/05/23 08:49:14;;;;;;;6.07;1.90;;;;;;;18.07;18.59;98592.88;5021657;28;20041;-60
2022/05/23 08:52:11;;;;;;;6.05;2.17;;;;;;;17.86;18.40;98596.53;5022218;28;20484;-56
2022/05/23 08:54:48;;;;;;;4.28;1.88;;;;;;;17.74;18.45;98582.75;5011502;28;20132;-58
2022/05/23 08:57:37;;;;;;;5.18;1.90;;;;;;;17.82;17.96;98597.94;5024781;28;20421;-55
2022/05/23 09:00:14;;;;;;;5.82;2.15;;;;;;;17.59;19.12;98592.84;5030588;28;20038;-59
2022/05/23 09:02:46;;;;;;;3.35;1.77;;;;;;;17.14;20.05;98595.91;5020429;28;20034;-53
2022/05/23 09:05:17;;;;;;;1.95;1.63;;;;;;;17.04;20.03;98602.47;5021538;28;20033;-57
2022/05/23 09:07:47;;;;;;;2.50;2.10;;;;;;;17.04;19.80;98596.25;5030220;28;20044;-56
2022/05/23 09:10:49;;;;;;;5.97;2.30;;;;;;;17.28;18.57;98586.03;5030445;28;20037;-57
2022/05/23 09:13:16;;;;;;;4.20;2.10;;;;;;;17.13;19.92;98592.38;5018933;28;20045;-57
2022/05/23 09:15:43;;;;;;;2.53;2.13;;;;;;;17.05;20.25;98584.41;5029029;28;20065;-56
2022/05/23 09:18:16;;;;;;;6.10;2.05;;;;;;;17.10;20.67;98586.50;5029904;28;20038;-57
2022/05/23 09:20:49;;;;;;;4.20;2.13;;;;;;;17.16;20.82;98588.44;5029871;28;20124;-55
2022/05/23 09:23:37;;;;;;;4.45;2.00;;;;;;;17.33;20.23;98575.44;5028857;28;20481;-55
2022/05/23 09:26:09;;;;;;;2.00;1.80;;;;;;;17.03;20.64;98554.84;5023283;28;20034;-58
2022/05/23 09:28:39;;;;;;;8.00;2.35;;;;;;;17.32;21.06;98579.19;5030449;28;20037;-59
2022/05/23 09:31:21;;;;;;;4.70;1.98;;;;;;;17.56;19.39;98577.84;5028802;28;20087;-56
2022/05/23 09:33:51;;;;;;;6.00;2.17;;;;;;;17.54;20.73;98585.34;5030036;28;20041;-56
2022/05/23 09:36:25;;;;;;;2.53;2.00;;;;;;;17.59;20.13;98580.16;5029461;28;20079;-58
2022/05/23 09:38:50;;;;;;;3.38;2.10;;;;;;;17.36;20.84;98569.63;5029917;28;20382;-56
2022/05/23 09:49:55;;;;;;;3.65;1.50;;;;;;;17.14;20.13;98577.00;5009527;28;20030;-55
2022/05/23 09:52:32;;;;;;;3.05;1.60;;;;;;;17.06;20.05;98567.16;5025213;28;20033;-61
2022/05/23 09:55:04;;;;;;;3.85;2.05;;;;;;;17.19;20.10;98574.53;5029358;28;20056;-57
2022/05/23 09:57:53;;;;;;;3.35;1.63;;;;;;;17.33;19.92;98565.44;5031071;28;20042;-55
2022/05/23 10:00:20;;;;;;;6.85;1.65;;;;;;;17.26;20.85;98578.09;5027486;28;20033;-54
2022/05/23 10:03:01;;;;;;;5.63;2.20;;;;;;;17.39;21.08;98563.00;5033219;28;20040;-56
2022/05/23 10:05:26;;;;;;;6.60;1.83;;;;;;;17.42;21.13;98568.81;5032621;28;20116;-58
2022/05/23 10:07:59;;;;;;;6.63;1.80;;;;;;;17.55;20.50;98559.13;5033569;28;20453;-57
2022/05/23 10:10:28;;;;;;;5.93;1.95;;;;;;;17.64;20.14;98564.16;5031390;28;20040;-59
2022/05/23 10:13:18;;;;;;;7.45;1.83;;;;;;;17.84;19.83;98565.28;5033831;28;20362;-58
2022/05/23 10:15:50;;;;;;;5.25;1.90;;;;;;;17.69;20.22;98560.00;5033128;28;20033;-59
2022/05/23 10:18:24;;;;;;;4.60;1.70;;;;;;;17.52;20.13;98552.22;5033116;28;20104;-57
2022/05/23 10:20:50;;;;;;;5.25;1.73;;;;;;;17.31;20.54;98566.69;5030866;28;20438;-58
2022/05/23 10:23:22;;;;;;;3.08;1.58;;;;;;;17.33;20.33;98545.69;5027499;28;20036;-59
2022/05/23 10:26:11;;;;;;;3.05;1.55;;;;;;;17.30;20.47;98554.19;5031180;28;20489;-55
2022/05/23 10:28:48;;;;;;;6.90;1.70;;;;;;;17.27;20.34;98571.66;5032573;28;20034;-55
2022/05/23 10:31:19;;;;;;;4.63;1.73;;;;;;;17.19;21.05;98563.69;5032384;28;20021;-56
2022/05/23 10:33:47;;;;;;;5.18;1.80;;;;;;;17.08;21.17;98555.09;5030113;28;20068;-56
2022/05/23 10:36:19;;;;;;;2.40;1.75;;;;;;;17.00;21.42;98552.53;5020712;28;20087;-53
2022/05/23 10:42:23;;;;;;;7.85;1.67;;;;;;;17.23;20.46;98551.44;5032492;28;20053;-56
2022/05/23 10:45:13;;;;;;;4.97;1.58;;;;;;;17.30;20.77;98546.09;4990747;28;20037;-52
2022/05/23 10:47:41;;;;;;;5.47;1.65;;;;;;;17.13;20.83;98559.91;5028827;28;20029;-54
2022/05/23 10:50:29;;;;;;;4.35;1.70;;;;;;;17.14;20.90;98556.16;5032928;28;20045;-52
2022/05/23 10:53:21;;;;;;;3.35;1.52;;;;;;;17.25;20.96;98557.50;5033971;28;20037;-56
2022/05/23 10:55:55;;;;;;;6.50;1.80;;;;;;;17.47;21.12;98552.00;5032282;28;20033;-57
2022/05/23 10:58:42;;;;;;;2.40;1.45;;;;;;;17.60;20.66;98554.78;5032646;28;20029;-58
2022/05/23 11:01:50;;;;;;;4.70;1.58;;;;;;;17.37;20.64;98555.06;5033501;28;20037;-56
2022/05/23 11:04:55;;;;;;;4.65;2.03;;;;;;;17.11;21.01;98556.56;5031051;28;20455;-56
2022/05/23 11:07:35;;;;;;;5.30;1.77;;;;;;;16.98;21.30;98551.91;5032850;28;20481;-56
2022/05/23 11:10:42;;;;;;;4.53;1.70;;;;;;;17.09;20.95;98555.94;5032886;28;20038;-57
2022/05/23 11:13:40;;;;;;;4.97;1.70;;;;;;;17.17;21.25;98561.19;5031220;28;20378;-57
2022/05/23 11:16:14;;;;;;;4.60;1.40;;;;;;;17.12;20.86;98552.84;5027406;28;20116;-53
2022/05/23 11:18:55;;;;;;;5.13;1.77;;;;;;;17.17;21.28;98552.25;5032961;28;20026;-57
2022/05/23 11:21:41;;;;;;;4.05;1.27;;;;;;;17.04;21.12;98524.06;5031253;28;20492;-52
2022/05/23 11:24:21;;;;;;;3.45;1.58;;;;;;;17.10;21.32;98552.19;5031039;28;20112;-54
2022/05/23 11:33:41;;;;;;;3.60;1.60;;;;;;;17.05;21.70;98546.56;5032082;28;20025;-57
2022/05/23 11:35:23;;;;;;;5.00;1.60;;;;;;;16.75;21.04;98542.13;5016645;28;20036;-55
2022/05/23 11:37:49;;;;;;;6.78;1.70;;;;;;;16.75;21.44;98552.94;5031584;28;20022;-52
2022/05/23 11:40:25;;;;;;;6.60;1.60;;;;;;;16.85;21.32;98540.94;5030124;28;20065;-56
2022/05/23 11:42:58;;;;;;;5.03;1.75;;;;;;;16.72;21.62;98542.53;5030323;28;20057;-55
2022/05/23 11:48:27;;;;;;;3.80;1.40;;;;;;;16.94;20.98;98529.78;5012709;28;20041;-53
2022/05/23 11:50:56;;;;;;;3.50;1.35;;;;;;;16.77;21.25;98518.44;5012398;28;20037;-54
2022/05/23 11:53:34;;;;;;;3.67;1.50;;;;;;;17.01;20.88;98546.09;5026364;28;20108;-50
2022/05/23 11:56:02;;;;;;;4.18;1.60;;;;;;;17.00;20.99;98536.31;5031820;28;20092;-54
2022/05/23 11:58:31;;;;;;;4.15;1.60;;;;;;;17.08;21.15;98543.44;5032015;28;20033;-55
2022/05/23 12:01:04;;;;;;;2.33;1.48;;;;;;;17.13;20.79;98548.28;5031463;28;20107;-56
2022/05/23 12:03:52;;;;;;;2.08;1.40;;;;;;;17.22;20.79;98550.59;5031035;28;20397;-53
2022/05/23 12:06:19;;;;;;;5.35;1.50;;;;;;;17.14;20.82;98528.31;5031720;28;20038;-56
2022/05/23 12:09:05;;;;;;;1.98;1.45;;;;;;;17.22;20.20;98534.38;5031027;28;20021;-53
2022/05/23 12:11:32;;;;;;;5.78;1.88;;;;;;;17.04;20.63;98540.28;5031339;28;20112;-53
2022/05/23 12:14:25;;;;;;;4.35;1.52;;;;;;;17.21;20.80;98529.19;5031496;28;20112;-57
2022/05/23 12:16:56;;;;;;;6.30;1.77;;;;;;;17.01;20.75;98534.47;5031620;28;20070;-56
2022/05/23 12:19:32;;;;;;;6.05;1.58;;;;;;;17.00;20.73;98547.13;5030916;28;20033;-56
2022/05/23 12:22:19;;;;;;;3.65;1.92;;;;;;;17.10;20.31;98543.22;5029688;28;20076;-57
2022/05/23 12:25:09;;;;;;;4.40;1.75;;;;;;;17.11;20.18;98553.88;5030722;28;20061;-54
2022/05/23 12:28:10;;;;;;;5.32;1.95;;;;;;;17.05;19.79;98528.44;5030997;28;20140;-56
2022/05/23 12:30:41;;;;;;;4.65;2.00;;;;;;;16.96;20.11;98543.13;5017051;28;20056;-54
2022/05/23 12:33:11;;;;;;;7.40;2.10;;;;;;;16.91;19.82;98524.78;5030109;28;20117;-54
2022/05/23 12:35:36;;;;;;;3.22;1.80;;;;;;;16.79;19.43;98548.00;5029209;28;20461;-56
2022/05/23 12:38:10;;;;;;;3.53;1.70;;;;;;;16.75;19.10;98558.34;5030057;28;20044;-53
2022/05/23 12:40:54;;;;;;;6.35;1.90;;;;;;;16.59;19.64;98553.22;5031115;28;20041;-58
2022/05/23 12:43:49;;;;;;;4.80;1.63;;;;;;;16.49;19.79;98549.00;5029895;28;20045;-59
2022/05/23 12:46:20;;;;;;;2.28;1.65;;;;;;;16.45;20.12;98536.91;5028890;28;20032;-55
2022/05/23 12:49:05;;;;;;;4.88;1.70;;;;;;;16.48;19.74;98546.47;5011403;28;20485;-55
2022/05/23 12:52:01;;;;;;;3.00;1.90;;;;;;;16.60;19.46;98539.53;5020993;28;20025;-53
2022/05/23 12:54:33;;;;;;;;;;;;;;;16.89;18.94;98545.78;5029028;28;20044;-54